Time;durP1;ratioP1;P1;durP2;ratioP2;P2;SDS_P1;SDS_P2;PMS_P1;PMS_P2;Temp;Humidity;BMP_temperature;BMP_pressure;BME280_temperature;BME280_humidity;BME280_pressure;Samples;Min_cycle;Max_cycle;Signal;HPM_P1;HPM_P2
2022/08/19 00:00:14;;;;;;;22.67;20.38;;;;;;;22.52;58.07;96946.72;5008222;27;20289;-75
2022/08/19 00:02:41;;;;;;;26.20;23.38;;;;;;;22.45;58.27;96952.56;5043242;27;20196;-75
2022/08/19 00:05:07;;;;;;;22.50;19.65;;;;;;;22.51;57.95;96945.94;5034255;27;20200;-75
2022/08/19 00:07:33;;;;;;;22.55;20.23;;;;;;;22.56;59.39;96948.38;5008355;28;20840;-75
2022/08/19 00:09:58;;;;;;;21.90;19.55;;;;;;;22.50;59.49;96941.75;4999978;27;20286;-75
2022/08/19 00:12:24;;;;;;;22.13;19.75;;;;;;;22.42;59.93;96932.75;5031421;27;20290;-75
2022/08/19 00:14:49;;;;;;;23.10;20.70;;;;;;;22.35;59.30;96935.19;5031466;27;20197;-75
2022/08/19 00:17:14;;;;;;;23.08;20.58;;;;;;;22.33;59.34;96929.44;5040233;27;20208;-75
2022/08/19 00:19:40;;;;;;;23.38;20.88;;;;;;;22.30;59.25;96926.66;5008979;27;20189;-75
2022/08/19 00:22:08;;;;;;;22.77;20.25;;;;;;;22.29;59.92;96925.84;5027611;27;20166;-75
2022/08/19 00:24:34;;;;;;;23.48;20.98;;;;;;;22.28;60.12;96921.66;5011637;27;20170;-75
2022/08/19 00:27:01;;;;;;;22.70;20.33;;;;;;;22.29;60.77;96928.50;5028110;27;20169;-75
2022/08/19 00:29:27;;;;;;;19.95;17.85;;;;;;;22.26;61.03;96929.94;5044840;27;20219;-75
2022/08/19 00:31:54;;;;;;;22.38;18.98;;;;;;;22.23;61.52;96943.84;5006836;28;20189;-75
2022/08/19 00:34:20;;;;;;;22.23;18.77;;;;;;;22.19;61.89;96952.75;5015764;28;20254;-74
2022/08/19 00:36:48;;;;;;;21.67;19.38;;;;;;;22.14;61.96;96945.78;4990953;28;20287;-75
2022/08/19 00:39:15;;;;;;;22.50;19.75;;;;;;;22.08;61.58;96949.72;5018811;27;20650;-75
2022/08/19 00:41:41;;;;;;;21.13;18.92;;;;;;;22.09;62.14;96953.94;5027413;27;20120;-75
2022/08/19 00:44:13;;;;;;;22.77;20.35;;;;;;;22.00;62.06;96945.28;5024529;27;20120;-75
2022/08/19 00:46:41;;;;;;;22.45;19.80;;;;;;;22.07;60.20;96940.22;5008808;27;20200;-75
2022/08/19 00:49:19;;;;;;;25.30;22.38;;;;;;;21.96;60.75;96929.25;5026545;28;20184;-75
2022/08/19 00:51:47;;;;;;;23.27;20.63;;;;;;;22.07;60.83;96924.31;5027439;27;20206;-75
2022/08/19 00:54:13;;;;;;;23.25;20.80;;;;;;;22.14;60.99;96921.94;5027304;27;20242;-75
2022/08/19 00:56:39;;;;;;;21.85;19.30;;;;;;;22.15;60.23;96926.13;5008153;27;20291;-76
2022/08/19 00:59:08;;;;;;;22.80;20.48;;;;;;;22.17;59.98;96923.13;5009570;27;20205;-76
2022/08/19 01:01:42;;;;;;;23.10;20.75;;;;;;;22.06;60.09;96922.78;5046713;27;20169;-74
2022/08/19 01:04:07;;;;;;;24.83;22.20;;;;;;;22.13;59.60;96915.06;5031052;27;20316;-74
2022/08/19 01:06:35;;;;;;;25.05;22.38;;;;;;;22.04;60.07;96919.69;5047989;27;20272;-75
2022/08/19 01:09:01;;;;;;;22.70;20.25;;;;;;;22.05;60.11;96916.72;5010863;28;20214;-74
2022/08/19 01:11:28;;;;;;;25.55;21.75;;;;;;;22.04;59.91;96917.78;5037153;27;20666;-75
2022/08/19 01:13:54;;;;;;;25.60;22.02;;;;;;;21.98;60.36;96911.13;5047734;27;20208;-75
2022/08/19 01:16:21;;;;;;;22.83;20.23;;;;;;;21.98;60.66;96905.06;5010361;27;20633;-75
2022/08/19 01:18:47;;;;;;;22.95;20.52;;;;;;;22.02;60.24;96900.66;5019058;28;20205;-74
2022/08/19 01:21:32;;;;;;;24.08;21.17;;;;;;;21.93;60.45;96898.06;5007161;28;20317;-75
2022/08/19 01:23:58;;;;;;;25.67;21.13;;;;;;;22.00;60.38;96902.84;5006961;28;20269;-75
2022/08/19 01:26:24;;;;;;;22.85;20.48;;;;;;;22.05;59.07;96905.31;4990618;28;20302;-75
2022/08/19 01:28:51;;;;;;;24.85;20.67;;;;;;;22.04;59.02;96917.78;5012575;28;20215;-75
2022/08/19 01:31:21;;;;;;;24.17;21.67;;;;;;;22.01;58.64;96909.72;5026813;28;20271;-75
2022/08/19 01:33:47;;;;;;;22.95;20.08;;;;;;;22.15;58.60;96928.00;5014538;28;20720;-75
2022/08/19 01:36:16;;;;;;;22.77;20.38;;;;;;;22.11;58.62;96917.28;4990298;28;20286;-75
2022/08/19 01:38:42;;;;;;;24.40;21.80;;;;;;;22.18;58.00;96920.16;4991879;28;20228;-75
2022/08/19 01:41:10;;;;;;;24.23;21.63;;;;;;;22.23;57.81;96908.59;4973839;28;20717;-75
2022/08/19 01:43:36;;;;;;;20.65;18.52;;;;;;;22.26;57.60;96914.00;4973611;28;20620;-75
2022/08/19 01:46:03;;;;;;;23.35;20.77;;;;;;;22.36;57.47;96912.06;5006761;28;20411;-75
2022/08/19 01:48:40;;;;;;;22.05;19.63;;;;;;;22.22;57.77;96917.63;4990455;28;20128;-76
2022/08/19 01:51:06;;;;;;;22.15;19.85;;;;;;;22.33;57.12;96915.38;5006984;28;20242;-75
2022/08/19 01:53:32;;;;;;;21.98;19.77;;;;;;;22.39;56.92;96924.69;5006801;28;20170;-76
2022/08/19 01:55:58;;;;;;;21.48;19.17;;;;;;;22.42;56.80;96924.81;5024675;28;20290;-76
2022/08/19 01:58:30;;;;;;;21.48;19.17;;;;;;;22.35;56.93;96921.16;4989007;28;20708;-76
2022/08/19 02:00:55;;;;;;;23.45;20.15;;;;;;;22.39;57.34;96930.00;5023181;28;20382;-75
2022/08/19 02:03:21;;;;;;;20.60;18.55;;;;;;;22.41;57.06;96933.09;5046302;27;20422;-75
2022/08/19 02:05:46;;;;;;;20.23;18.23;;;;;;;22.40;57.46;96928.91;5053467;27;20215;-75
2022/08/19 02:08:12;;;;;;;19.98;17.95;;;;;;;22.41;57.62;96922.47;5027116;28;20297;-75
2022/08/19 02:10:40;;;;;;;19.52;17.58;;;;;;;22.37;57.10;96922.34;5024337;27;20179;-76
2022/08/19 02:13:06;;;;;;;20.52;18.55;;;;;;;22.40;57.21;96931.56;5014502;27;20279;-75
2022/08/19 02:15:31;;;;;;;20.05;18.08;;;;;;;22.42;57.93;96934.66;5030696;28;20680;-75
2022/08/19 02:17:58;;;;;;;19.27;17.27;;;;;;;22.35;58.77;96921.91;4990545;28;20186;-75
2022/08/19 02:20:23;;;;;;;19.73;17.80;;;;;;;22.26;58.92;96932.56;4989960;28;20208;-75
2022/08/19 02:22:49;;;;;;;19.55;17.55;;;;;;;22.28;59.33;96934.13;5017587;27;20626;-76
2022/08/19 02:25:15;;;;;;;19.98;18.00;;;;;;;22.21;59.98;96935.44;5030648;27;20220;-76
2022/08/19 02:27:41;;;;;;;19.88;17.88;;;;;;;22.16;60.57;96940.94;5067893;27;20263;-75
2022/08/19 02:30:10;;;;;;;20.17;18.13;;;;;;;22.08;60.77;96936.47;5030913;27;20165;-75
2022/08/19 02:32:35;;;;;;;19.30;17.05;;;;;;;22.04;61.07;96940.88;5029668;27;20237;-75
2022/08/19 02:35:01;;;;;;;19.42;17.50;;;;;;;22.02;61.11;96937.75;5030703;27;20245;-76
2022/08/19 02:40:12;;;;;;;19.95;17.83;;;;;;;21.94;61.70;96943.94;5012919;28;20255;-75
2022/08/19 02:42:37;;;;;;;20.55;18.15;;;;;;;21.83;61.14;96936.38;4994231;28;20339;-75
2022/08/19 02:45:05;;;;;;;20.25;18.15;;;;;;;21.81;60.09;96938.53;5004743;27;20202;-75
2022/08/19 02:47:31;;;;;;;18.92;16.92;;;;;;;21.83;60.62;96943.53;5032507;27;20726;-75
2022/08/19 02:49:56;;;;;;;19.52;17.40;;;;;;;21.84;59.67;96943.22;4988357;27;20189;-75
2022/08/19 02:52:23;;;;;;;18.55;16.65;;;;;;;21.89;58.87;96947.53;5019986;27;20231;-76
2022/08/19 02:54:48;;;;;;;19.08;16.80;;;;;;;21.97;58.60;96943.25;5016514;27;20196;-75
2022/08/19 02:57:14;;;;;;;18.52;16.63;;;;;;;21.98;59.31;96947.47;5030922;27;20211;-75
2022/08/19 02:59:40;;;;;;;17.83;16.00;;;;;;;22.01;58.23;96944.19;5031616;27;20152;-75
2022/08/19 03:02:06;;;;;;;18.75;16.75;;;;;;;22.06;57.86;96949.28;5013742;28;20764;-75
2022/08/19 03:04:35;;;;;;;18.15;16.30;;;;;;;22.15;57.33;96949.22;5009078;28;20651;-75
2022/08/19 03:07:01;;;;;;;16.98;15.20;;;;;;;22.16;57.71;96940.94;4992761;28;20299;-75
2022/08/19 03:09:26;;;;;;;17.15;15.35;;;;;;;22.20;57.09;96944.47;5002162;27;20254;-75
2022/08/19 03:11:52;;;;;;;16.67;14.95;;;;;;;22.24;56.84;96940.09;5037432;27;20679;-75
2022/08/19 03:14:18;;;;;;;16.33;14.77;;;;;;;22.24;57.04;96937.44;5012862;27;20252;-75
2022/08/19 03:16:45;;;;;;;17.48;15.63;;;;;;;22.19;57.22;96929.69;5029459;27;20244;-76
2022/08/19 03:19:11;;;;;;;17.73;15.60;;;;;;;22.24;57.07;96928.69;4996133;27;20743;-75
2022/08/19 03:21:37;;;;;;;16.40;14.73;;;;;;;22.26;57.16;96931.81;5031874;27;20236;-75
2022/08/19 03:24:07;;;;;;;16.95;15.25;;;;;;;22.18;56.99;96925.47;5014514;27;20181;-75
2022/08/19 03:26:33;;;;;;;17.90;14.82;;;;;;;22.21;57.09;96924.06;5031119;27;20176;-75
2022/08/19 03:29:03;;;;;;;15.95;14.23;;;;;;;22.10;57.36;96928.97;5005556;28;20202;-75
2022/08/19 03:31:31;;;;;;;15.50;13.98;;;;;;;22.22;57.27;96942.28;5008745;28;20155;-75
2022/08/19 03:33:56;;;;;;;15.23;13.70;;;;;;;22.18;57.96;96941.38;5029901;27;20672;-75
2022/08/19 03:36:25;;;;;;;18.08;16.27;;;;;;;22.01;58.97;96949.50;5005661;28;20620;-75
2022/08/19 03:38:54;;;;;;;16.85;15.05;;;;;;;21.97;60.04;96957.31;4993577;28;20205;-75
2022/08/19 03:41:21;;;;;;;17.52;15.23;;;;;;;21.86;60.11;96956.91;5023066;27;20168;-75
2022/08/19 03:43:48;;;;;;;17.90;16.10;;;;;;;21.77;60.29;96958.84;5048603;27;20268;-75
2022/08/19 03:46:21;;;;;;;17.77;16.02;;;;;;;21.64;60.92;96962.53;5008222;27;20205;-74
2022/08/19 03:48:49;;;;;;;16.92;15.23;;;;;;;21.60;60.64;96962.38;4991886;28;20201;-75
2022/08/19 03:51:16;;;;;;;17.10;15.30;;;;;;;21.55;60.86;96959.94;4991657;28;20634;-75
2022/08/19 03:53:42;;;;;;;17.30;15.45;;;;;;;21.45;60.65;96960.25;5000663;27;20288;-75
2022/08/19 03:56:09;;;;;;;17.17;15.48;;;;;;;21.43;61.10;96960.59;5028964;27;20331;-75
2022/08/19 03:58:35;;;;;;;16.30;14.70;;;;;;;21.47;61.60;96958.09;5027083;27;20188;-75
2022/08/19 04:01:00;;;;;;;19.02;17.13;;;;;;;21.34;62.19;96957.22;5043676;27;20273;-75
2022/08/19 04:03:26;;;;;;;18.02;16.17;;;;;;;21.22;62.03;96955.25;5010624;27;20197;-75
2022/08/19 04:05:53;;;;;;;16.75;14.80;;;;;;;21.20;62.11;96959.28;5011744;27;20271;-75
2022/08/19 04:08:20;;;;;;;16.50;14.90;;;;;;;21.17;62.18;96958.06;5011785;27;20240;-76
2022/08/19 04:10:47;;;;;;;17.55;15.70;;;;;;;21.10;62.63;96961.22;5020627;27;20333;-76
2022/08/19 04:13:14;;;;;;;17.35;15.50;;;;;;;21.05;62.57;96961.38;5014611;27;20282;-76
2022/08/19 04:15:42;;;;;;;18.73;16.42;;;;;;;21.03;62.85;96960.16;5026986;27;20170;-76
2022/08/19 04:18:10;;;;;;;16.95;15.20;;;;;;;20.99;62.36;96957.38;5011100;27;20689;-76
2022/08/19 04:20:44;;;;;;;16.75;15.05;;;;;;;20.93;63.16;96961.28;5042486;27;20658;-75
2022/08/19 04:23:10;;;;;;;16.52;14.43;;;;;;;20.98;62.47;96949.75;5026808;27;20217;-75
2022/08/19 04:25:40;;;;;;;19.52;17.50;;;;;;;20.89;62.66;96950.56;5011253;27;20691;-76
2022/08/19 04:28:06;;;;;;;19.75;17.45;;;;;;;20.90;62.56;96948.69;4994906;27;20180;-75
2022/08/19 04:30:41;;;;;;;18.95;15.27;;;;;;;20.81;63.17;96946.06;4987216;28;20279;-75
2022/08/19 04:33:06;;;;;;;18.85;16.88;;;;;;;20.85;63.37;96949.63;4990932;28;20201;-75
2022/08/19 04:35:38;;;;;;;19.05;17.00;;;;;;;20.72;63.40;96942.69;4974577;28;20198;-75
2022/08/19 04:38:03;;;;;;;17.85;15.95;;;;;;;20.77;63.52;96945.16;4991069;28;20209;-75
2022/08/19 04:43:14;;;;;;;19.45;17.38;;;;;;;20.70;63.69;96956.22;5030227;27;20250;-75
2022/08/19 04:45:40;;;;;;;19.00;17.00;;;;;;;20.66;63.94;96962.44;5024213;28;20688;-75
2022/08/19 04:48:05;;;;;;;17.77;15.88;;;;;;;20.62;64.13;96950.91;5008752;27;20288;-75
2022/08/19 04:50:30;;;;;;;18.45;16.55;;;;;;;20.60;64.20;96953.88;5027613;27;20204;-76
2022/08/19 04:52:56;;;;;;;17.15;15.45;;;;;;;20.57;64.02;96946.56;5010762;27;20199;-76
2022/08/19 04:55:21;;;;;;;17.27;15.45;;;;;;;20.59;64.16;96949.66;5010728;28;20279;-75
2022/08/19 04:57:47;;;;;;;18.65;16.50;;;;;;;20.57;63.95;96949.22;5047310;27;20642;-76
2022/08/19 05:00:12;;;;;;;18.25;16.35;;;;;;;20.56;63.87;96945.00;5034621;27;20196;-76
2022/08/19 05:02:38;;;;;;;17.80;16.00;;;;;;;20.58;63.78;96946.25;4991954;27;20203;-75
2022/08/19 05:05:06;;;;;;;18.48;16.42;;;;;;;20.54;64.33;96949.84;5009884;27;20238;-75
2022/08/19 05:07:31;;;;;;;20.35;16.80;;;;;;;20.55;64.71;96954.81;4993274;27;20412;-75
2022/08/19 05:09:57;;;;;;;17.80;15.98;;;;;;;20.58;64.21;96953.41;5029637;27;20209;-76
2022/08/19 05:12:22;;;;;;;18.48;15.85;;;;;;;20.61;64.06;96963.34;5006069;27;20192;-75
2022/08/19 05:14:49;;;;;;;18.95;16.88;;;;;;;20.66;63.62;96957.16;5023781;28;20720;-75
2022/08/19 05:17:15;;;;;;;17.45;15.55;;;;;;;20.72;63.40;96956.66;4999691;27;20157;-76
2022/08/19 05:22:37;;;;;;;15.23;13.73;;;;;;;21.00;62.36;96966.09;5024677;28;20217;-75
2022/08/19 05:25:09;;;;;;;16.02;14.30;;;;;;;20.99;62.28;96967.16;4991667;28;20278;-76
2022/08/19 05:27:34;;;;;;;16.38;14.23;;;;;;;21.18;62.16;96974.72;5006916;28;20186;-75
2022/08/19 05:30:00;;;;;;;14.75;13.35;;;;;;;21.23;61.62;96966.59;5015808;28;20242;-76
2022/08/19 05:32:25;;;;;;;15.40;13.85;;;;;;;21.31;61.09;96979.81;5026239;28;20181;-75
2022/08/19 05:34:51;;;;;;;14.35;12.93;;;;;;;21.37;61.10;96971.69;4988147;28;20208;-75
2022/08/19 05:37:16;;;;;;;14.35;12.93;;;;;;;21.45;60.75;96984.88;5005691;28;20209;-76
2022/08/19 05:39:42;;;;;;;15.13;13.38;;;;;;;21.50;61.27;96979.41;5019316;28;20282;-76
2022/08/19 05:42:09;;;;;;;15.25;13.55;;;;;;;21.57;59.96;96986.88;5025992;28;20860;-75
2022/08/19 05:44:39;;;;;;;14.40;12.77;;;;;;;21.72;59.86;96988.19;5024799;28;20251;-76
2022/08/19 05:47:05;;;;;;;14.32;12.93;;;;;;;21.89;59.53;96998.69;5017808;28;20195;-75
2022/08/19 05:49:33;;;;;;;14.43;12.80;;;;;;;21.99;59.54;97008.13;5014795;28;20647;-76
2022/08/19 05:51:59;;;;;;;15.02;13.48;;;;;;;22.04;59.62;97009.81;5016606;28;20312;-75
2022/08/19 05:54:25;;;;;;;15.15;13.35;;;;;;;22.03;60.31;97010.91;5029216;28;20264;-75
2022/08/19 05:56:52;;;;;;;12.88;11.57;;;;;;;22.13;59.58;97015.06;5036175;27;20595;-76
2022/08/19 05:59:19;;;;;;;14.30;12.25;;;;;;;22.25;58.59;97007.94;5035761;27;20245;-76
2022/08/19 06:01:45;;;;;;;14.30;12.77;;;;;;;22.37;58.39;97025.03;5029846;27;20179;-76
2022/08/19 06:04:13;;;;;;;12.73;11.43;;;;;;;22.49;58.30;97027.75;5007214;28;20242;-76
2022/08/19 06:06:39;;;;;;;13.57;12.00;;;;;;;22.60;57.70;97034.22;4994346;28;20280;-76
2022/08/19 06:09:06;;;;;;;13.55;12.20;;;;;;;22.67;58.09;97030.22;4994108;28;20713;-75
2022/08/19 06:11:33;;;;;;;13.02;10.82;;;;;;;22.83;57.67;97039.16;5012368;27;20307;-75
2022/08/19 06:14:02;;;;;;;14.68;11.20;;;;;;;22.93;57.23;97038.72;5030471;27;20177;-76
2022/08/19 06:16:28;;;;;;;12.20;11.00;;;;;;;23.13;56.80;97046.97;5007264;27;20235;-76
2022/08/19 06:18:56;;;;;;;12.93;11.60;;;;;;;23.20;56.77;97052.53;4985067;28;20209;-76
2022/08/19 06:21:24;;;;;;;13.73;12.30;;;;;;;23.16;57.18;97046.31;4976893;28;20178;-75
2022/08/19 06:23:51;;;;;;;13.70;12.30;;;;;;;23.10;57.29;97051.09;4989393;28;20185;-75
2022/08/19 06:26:18;;;;;;;14.15;12.63;;;;;;;23.28;57.08;97050.88;5010549;27;20242;-75
2022/08/19 06:28:46;;;;;;;14.27;12.73;;;;;;;23.44;55.33;97051.00;4994756;27;20340;-76
2022/08/19 06:31:13;;;;;;;16.48;11.15;;;;;;;23.52;55.96;97055.44;5037502;27;20354;-75
2022/08/19 06:33:39;;;;;;;13.95;12.13;;;;;;;23.63;55.36;97048.59;5009354;27;20129;-75
2022/08/19 06:36:05;;;;;;;11.27;10.15;;;;;;;23.82;54.76;97055.25;5050526;27;20172;-75
2022/08/19 06:38:31;;;;;;;13.10;11.80;;;;;;;23.74;55.34;97051.56;5033711;27;20183;-75
2022/08/19 06:41:04;;;;;;;13.18;12.00;;;;;;;23.68;56.02;97058.22;5016273;27;20366;-75
2022/08/19 06:43:29;;;;;;;14.02;12.63;;;;;;;23.71;55.22;97060.22;5033712;27;20283;-75
2022/08/19 06:45:55;;;;;;;13.73;12.32;;;;;;;23.88;53.98;97056.56;5028694;27;20343;-75
2022/08/19 06:48:20;;;;;;;11.60;10.50;;;;;;;23.99;54.77;97055.03;5009596;28;20250;-76
2022/08/19 06:50:47;;;;;;;14.50;11.93;;;;;;;24.10;54.22;97060.66;5028636;28;20229;-76
2022/08/19 06:53:12;;;;;;;14.27;12.80;;;;;;;24.23;53.52;97053.41;5028276;28;20174;-76
2022/08/19 06:55:39;;;;;;;13.07;11.75;;;;;;;24.40;52.75;97058.47;4993692;28;20181;-75
2022/08/19 06:58:04;;;;;;;12.73;11.48;;;;;;;24.48;52.95;97048.78;5020705;27;20197;-75
2022/08/19 07:00:30;;;;;;;16.70;14.05;;;;;;;24.37;53.46;97058.34;5012792;27;20636;-75
2022/08/19 07:02:55;;;;;;;13.00;11.65;;;;;;;24.53;53.88;97061.09;5030078;27;20238;-76
2022/08/19 07:05:21;;;;;;;13.48;12.00;;;;;;;24.66;53.36;97055.41;5013199;27;20284;-75
2022/08/19 07:07:46;;;;;;;14.93;12.70;;;;;;;24.62;53.43;97062.50;5013265;27;20368;-75
2022/08/19 07:10:12;;;;;;;19.58;14.90;;;;;;;24.37;53.67;97051.16;5013139;27;20190;-76
2022/08/19 07:12:37;;;;;;;16.20;13.38;;;;;;;24.60;53.17;97053.31;5029758;27;20380;-76
2022/08/19 07:15:04;;;;;;;13.35;11.90;;;;;;;24.86;52.16;97051.00;5029926;27;20157;-76
2022/08/19 07:17:30;;;;;;;12.45;11.25;;;;;;;25.03;51.33;97051.78;5029810;27;20196;-76
2022/08/19 07:19:56;;;;;;;14.23;12.82;;;;;;;24.90;52.97;97052.94;5029894;27;20242;-75
2022/08/19 07:22:24;;;;;;;13.00;11.63;;;;;;;24.94;51.97;97054.59;5048029;27;20181;-75
2022/08/19 07:24:51;;;;;;;17.35;13.48;;;;;;;24.76;52.89;97056.81;5012749;27;20270;-76
2022/08/19 07:27:16;;;;;;;13.32;11.05;;;;;;;24.88;52.98;97058.63;5029597;27;20265;-75
2022/08/19 07:29:42;;;;;;;17.20;13.20;;;;;;;24.75;52.91;97057.91;5029568;27;20233;-75
2022/08/19 07:32:08;;;;;;;12.45;11.27;;;;;;;24.97;52.53;97061.16;4995909;27;20165;-75
2022/08/19 07:34:37;;;;;;;14.10;12.60;;;;;;;25.03;52.79;97057.09;5012684;27;20284;-76
2022/08/19 07:37:04;;;;;;;12.68;11.10;;;;;;;25.27;51.45;97056.22;5029715;27;20292;-76
2022/08/19 07:39:31;;;;;;;14.25;12.75;;;;;;;25.31;51.28;97056.28;5029467;27;20289;-75
2022/08/19 07:41:59;;;;;;;13.73;11.88;;;;;;;25.37;51.10;97066.34;5012043;27;20197;-75
2022/08/19 07:44:24;;;;;;;14.55;13.15;;;;;;;25.53;50.81;97062.91;5025911;28;20612;-76
2022/08/19 07:46:55;;;;;;;13.57;12.32;;;;;;;25.69;50.28;97057.59;4992093;28;20285;-76
2022/08/19 07:49:21;;;;;;;15.63;14.13;;;;;;;25.81;49.82;97068.16;4992607;28;20208;-75
2022/08/19 07:51:51;;;;;;;15.13;13.63;;;;;;;25.46;51.16;97066.19;5008596;28;20201;-76
2022/08/19 07:54:18;;;;;;;15.30;13.90;;;;;;;25.85;50.33;97066.31;5027610;28;20677;-75
2022/08/19 07:56:44;;;;;;;15.23;13.38;;;;;;;26.04;49.37;97065.63;5008644;28;20095;-75
2022/08/19 07:59:09;;;;;;;14.63;13.23;;;;;;;26.15;50.13;97058.63;4992109;28;20170;-75
2022/08/19 08:01:36;;;;;;;16.05;14.38;;;;;;;26.29;49.28;97062.72;4991570;28;20190;-75
2022/08/19 08:09:34;;;;;;;16.83;14.25;;;;;;;26.60;48.04;97069.03;5027104;28;20261;-75
2022/08/19 08:12:10;;;;;;;16.15;14.40;;;;;;;26.40;48.20;97062.94;5008550;28;20190;-75
2022/08/19 08:14:43;;;;;;;14.70;13.20;;;;;;;26.67;47.74;97058.53;5008651;28;20782;-75
2022/08/19 08:17:10;;;;;;;15.68;14.15;;;;;;;26.61;48.09;97058.00;4991974;28;20267;-76
2022/08/19 08:19:36;;;;;;;15.45;13.93;;;;;;;26.88;46.40;97068.81;5007867;28;20277;-75
2022/08/19 08:22:03;;;;;;;16.83;14.75;;;;;;;26.87;47.34;97068.06;4991429;28;20251;-76
2022/08/19 08:24:30;;;;;;;15.30;13.70;;;;;;;26.77;47.22;97062.50;4991945;28;20277;-75
2022/08/19 08:26:57;;;;;;;13.25;11.93;;;;;;;27.04;46.25;97069.50;5008503;28;20264;-76
2022/08/19 08:29:22;;;;;;;14.55;13.10;;;;;;;27.04;46.68;97072.19;5008780;28;20199;-75
2022/08/19 08:31:48;;;;;;;15.10;13.60;;;;;;;27.05;47.38;97073.72;4991433;28;20209;-76
2022/08/19 08:34:14;;;;;;;16.33;14.70;;;;;;;27.17;46.37;97075.44;5008546;28;20272;-75
2022/08/19 08:36:42;;;;;;;16.20;14.55;;;;;;;26.99;47.04;97075.16;4991466;28;20164;-75
2022/08/19 08:39:26;;;;;;;16.23;14.48;;;;;;;26.59;47.01;97072.84;4991637;28;20197;-76
2022/08/19 08:42:13;;;;;;;15.55;13.82;;;;;;;26.40;47.73;97071.69;4991556;28;20091;-75
2022/08/19 08:44:59;;;;;;;14.43;12.95;;;;;;;26.71;47.18;97075.38;5012497;28;20188;-76
2022/08/19 08:47:25;;;;;;;14.05;12.75;;;;;;;27.12;45.91;97074.97;5008042;28;20212;-75
2022/08/19 08:49:51;;;;;;;12.18;11.07;;;;;;;27.58;45.14;97083.78;4990984;28;20702;-75
2022/08/19 08:52:29;;;;;;;13.52;12.27;;;;;;;27.48;45.87;97080.94;5024037;28;20318;-76
2022/08/19 08:54:57;;;;;;;14.57;13.10;;;;;;;27.58;44.70;97089.13;4990955;28;20700;-75
2022/08/19 08:57:36;;;;;;;14.65;13.35;;;;;;;27.53;44.95;97086.00;5007985;28;20753;-75
2022/08/19 09:00:06;;;;;;;15.38;13.85;;;;;;;27.28;44.83;97081.78;5007328;28;20209;-74
2022/08/19 09:02:31;;;;;;;15.43;13.93;;;;;;;27.19;44.92;97093.81;4990589;28;20402;-75
2022/08/19 09:04:57;;;;;;;15.07;13.57;;;;;;;26.95;45.96;97090.31;5025492;27;20310;-75
2022/08/19 09:07:47;;;;;;;16.55;14.18;;;;;;;26.71;45.47;97105.53;5027696;27;20240;-75
2022/08/19 09:10:33;;;;;;;15.48;14.02;;;;;;;26.49;45.74;97093.63;5038477;27;20189;-75
2022/08/19 09:13:38;;;;;;;14.35;12.98;;;;;;;26.44;46.79;97098.47;5027350;28;20238;-75
2022/08/19 09:16:11;;;;;;;15.38;13.98;;;;;;;26.38;46.52;97094.53;5027623;27;20582;-75
2022/08/19 09:18:44;;;;;;;15.02;13.73;;;;;;;26.31;46.51;97095.16;5010814;27;20212;-75
2022/08/19 09:21:09;;;;;;;14.57;13.18;;;;;;;26.40;46.43;97097.63;5045995;27;20127;-75
2022/08/19 09:23:36;;;;;;;12.35;11.25;;;;;;;26.54;47.05;97093.38;5046091;27;20238;-75
2022/08/19 09:26:09;;;;;;;11.73;10.73;;;;;;;26.72;45.85;97092.97;5027368;28;20165;-75
2022/08/19 09:28:36;;;;;;;10.65;9.70;;;;;;;26.91;46.01;97095.59;5027386;28;20616;-75
2022/08/19 09:31:02;;;;;;;11.32;10.32;;;;;;;26.90;45.63;97095.97;5026947;28;20245;-75
2022/08/19 09:33:27;;;;;;;10.43;9.20;;;;;;;27.37;44.22;97086.91;5014700;27;20273;-75
2022/08/19 09:36:09;;;;;;;7.35;6.75;;;;;;;27.70;43.17;97085.50;5031301;27;20208;-75
2022/08/19 09:38:35;;;;;;;6.93;6.32;;;;;;;28.04;40.85;97082.97;5031741;27;20258;-76
2022/08/19 09:41:05;;;;;;;5.95;5.45;;;;;;;28.19;40.51;97083.94;5014223;27;20733;-75
2022/08/19 09:43:31;;;;;;;5.30;4.90;;;;;;;28.41;38.57;97084.94;5014830;27;20199;-75
2022/08/19 09:45:57;;;;;;;6.50;5.00;;;;;;;28.53;37.44;97082.06;5011104;28;20298;-75
2022/08/19 09:48:22;;;;;;;5.18;4.75;;;;;;;28.74;38.46;97086.91;5011090;28;20196;-76
2022/08/19 09:50:48;;;;;;;5.93;5.05;;;;;;;28.30;38.22;97082.16;4994175;28;20659;-75
2022/08/19 09:53:13;;;;;;;5.68;5.28;;;;;;;28.30;38.07;97078.72;4994467;28;20189;-75
2022/08/19 09:55:43;;;;;;;5.90;5.40;;;;;;;28.69;37.09;97078.44;5011238;28;20213;-75
2022/08/19 09:58:08;;;;;;;5.80;5.28;;;;;;;28.94;36.84;97079.47;5011088;28;20157;-75
2022/08/19 10:00:34;;;;;;;6.47;5.97;;;;;;;28.76;37.11;97078.50;4993899;28;20716;-75
2022/08/19 10:02:59;;;;;;;5.97;5.57;;;;;;;28.87;37.43;97065.22;5010936;28;20267;-75
2022/08/19 10:08:10;;;;;;;6.88;6.00;;;;;;;29.29;36.56;97064.09;4996350;28;20255;-75
2022/08/19 10:10:36;;;;;;;5.53;4.85;;;;;;;29.59;36.63;97069.31;5029032;28;20554;-75
2022/08/19 10:13:01;;;;;;;5.93;5.45;;;;;;;29.70;35.74;97061.34;5029375;28;20328;-75
2022/08/19 10:15:26;;;;;;;5.63;5.13;;;;;;;29.79;36.51;97071.78;5011134;28;20317;-75
2022/08/19 10:17:52;;;;;;;6.88;6.28;;;;;;;29.57;35.88;97066.22;4994165;28;20182;-75
2022/08/19 10:20:17;;;;;;;6.25;5.78;;;;;;;30.00;34.64;97063.09;5029050;28;20283;-75
2022/08/19 10:22:43;;;;;;;6.97;6.28;;;;;;;30.05;35.76;97062.72;5010377;28;20199;-75
2022/08/19 10:25:09;;;;;;;6.45;5.95;;;;;;;30.23;35.81;97063.59;4994038;28;20258;-75
2022/08/19 10:27:34;;;;;;;6.35;5.85;;;;;;;29.84;37.32;97058.00;4993816;28;20275;-75
2022/08/19 10:30:01;;;;;;;5.70;5.30;;;;;;;30.40;34.39;97050.63;5010449;28;20158;-75
2022/08/19 10:32:27;;;;;;;6.00;5.45;;;;;;;30.18;34.95;97055.13;4993291;28;20185;-75
2022/08/19 10:34:52;;;;;;;6.03;5.45;;;;;;;29.93;34.89;97045.03;4993796;28;20182;-75
2022/08/19 10:37:18;;;;;;;5.40;4.95;;;;;;;29.95;36.76;97052.69;4993257;28;20587;-75
2022/08/19 10:39:47;;;;;;;5.50;5.07;;;;;;;30.19;35.86;97045.91;5010174;28;20205;-75
2022/08/19 10:42:13;;;;;;;5.15;4.80;;;;;;;30.39;35.41;97041.81;4992833;28;20650;-75
2022/08/19 10:44:39;;;;;;;5.70;4.90;;;;;;;30.63;33.99;97040.34;4997555;28;20167;-76
2022/08/19 10:47:05;;;;;;;5.70;5.20;;;;;;;30.89;32.69;97043.09;4976825;28;20221;-76
2022/08/19 10:49:30;;;;;;;5.65;5.13;;;;;;;30.54;35.10;97044.56;4993060;28;20189;-75
2022/08/19 10:57:28;;;;;;;5.13;4.73;;;;;;;30.96;33.91;97045.81;5012828;28;20173;-76
2022/08/19 10:59:55;;;;;;;5.90;4.80;;;;;;;30.79;32.43;97040.00;5010274;28;20520;-75
2022/08/19 11:02:21;;;;;;;5.22;4.93;;;;;;;30.87;34.46;97030.03;4992738;28;20635;-75
2022/08/19 11:04:49;;;;;;;5.28;4.78;;;;;;;31.12;32.87;97035.47;4992786;28;20163;-75
2022/08/19 11:07:15;;;;;;;4.88;4.55;;;;;;;30.96;33.21;97043.13;5009996;28;20374;-75
2022/08/19 11:09:42;;;;;;;4.47;4.18;;;;;;;30.56;33.02;97044.94;5001259;27;20267;-75
2022/08/19 11:12:08;;;;;;;4.65;4.35;;;;;;;30.99;32.20;97032.38;5030849;27;20859;-75
2022/08/19 11:14:34;;;;;;;7.78;5.05;;;;;;;31.27;32.66;97033.53;5017623;27;20725;-74
2022/08/19 11:17:00;;;;;;;4.70;4.30;;;;;;;31.24;32.35;97036.22;5033434;27;20768;-75
2022/08/19 11:19:26;;;;;;;4.40;4.10;;;;;;;30.93;33.72;97031.22;5032795;27;20276;-75
2022/08/19 11:21:53;;;;;;;4.88;4.47;;;;;;;30.98;32.86;97032.75;5028705;27;20359;-75
2022/08/19 11:24:24;;;;;;;4.60;4.30;;;;;;;31.52;31.09;97028.16;4996340;27;20176;-75
2022/08/19 11:26:51;;;;;;;4.13;3.83;;;;;;;31.48;31.58;97022.00;5029372;27;20192;-74
2022/08/19 11:29:20;;;;;;;4.82;4.43;;;;;;;31.49;32.22;97014.69;5012479;27;20200;-74
2022/08/19 11:31:48;;;;;;;4.13;3.83;;;;;;;31.15;32.51;97017.78;5012102;27;20188;-75
2022/08/19 11:34:19;;;;;;;4.72;4.40;;;;;;;30.88;31.88;97015.44;5029237;27;20201;-75
2022/08/19 11:36:45;;;;;;;4.75;4.35;;;;;;;30.51;32.52;97010.38;4995492;27;20735;-75
2022/08/19 11:39:15;;;;;;;4.07;3.88;;;;;;;30.20;32.96;97021.38;4995725;27;20131;-75
2022/08/19 11:41:41;;;;;;;4.18;3.85;;;;;;;30.10;32.61;97015.97;5028741;27;20282;-74